sensor_id;sensor_type;location;lat;lon;timestamp;pressure;altitude;pressure_sealevel;temperature;humidity
24422;BME280;12600;53.326;-6.298;2023-04-09T00:00:14;101586.69;;;12.58;51.55
24422;BME280;12600;53.326;-6.298;2023-04-09T00:03:04;101578.03;;;12.51;51.52
24422;BME280;12600;53.326;-6.298;2023-04-09T00:05:56;101576.63;;;12.53;51.74
24422;BME280;12600;53.326;-6.298;2023-04-09T00:08:45;101564.06;;;12.52;52.14
24422;BME280;12600;53.326;-6.298;2023-04-09T00:11:36;101563.25;;;12.52;52.34
24422;BME280;12600;53.326;-6.298;2023-04-09T00:14:28;101541.75;;;12.40;52.24
24422;BME280;12600;53.326;-6.298;2023-04-09T00:17:17;101554.88;;;12.43;52.20
24422;BME280;12600;53.326;-6.298;2023-04-09T00:20:08;101522.00;;;12.43;51.37
24422;BME280;12600;53.326;-6.298;2023-04-09T00:22:57;101507.63;;;12.32;50.38
24422;BME280;12600;53.326;-6.298;2023-04-09T00:25:46;101518.94;;;12.45;50.15
24422;BME280;12600;53.326;-6.298;2023-04-09T00:28:37;101524.94;;;12.47;51.04
24422;BME280;12600;53.326;-6.298;2023-04-09T00:31:26;101524.94;;;12.47;51.40
24422;BME280;12600;53.326;-6.298;2023-04-09T00:34:16;101519.53;;;12.42;52.10
24422;BME280;12600;53.326;-6.298;2023-04-09T00:37:05;101532.44;;;12.41;53.05
24422;BME280;12600;53.326;-6.298;2023-04-09T00:39:55;101507.88;;;12.36;53.75
24422;BME280;12600;53.326;-6.298;2023-04-09T00:42:44;101524.06;;;12.32;54.25
24422;BME280;12600;53.326;-6.298;2023-04-09T00:45:35;101522.97;;;12.33;54.71
24422;BME280;12600;53.326;-6.298;2023-04-09T00:48:25;101526.31;;;12.30;54.72
24422;BME280;12600;53.326;-6.298;2023-04-09T00:51:14;101536.09;;;12.37;54.81
24422;BME280;12600;53.326;-6.298;2023-04-09T00:54:03;101534.22;;;12.32;54.77
24422;BME280;12600;53.326;-6.298;2023-04-09T00:56:54;101531.50;;;12.32;55.20
24422;BME280;12600;53.326;-6.298;2023-04-09T00:59:44;101512.84;;;12.15;56.21
24422;BME280;12600;53.326;-6.298;2023-04-09T01:02:35;101526.00;;;12.32;55.89
24422;BME280;12600;53.326;-6.298;2023-04-09T01:05:36;101515.34;;;12.30;55.79
24422;BME280;12600;53.326;-6.298;2023-04-09T01:08:35;101529.34;;;12.29;55.75
24422;BME280;12600;53.326;-6.298;2023-04-09T01:11:34;101511.00;;;12.11;56.15
24422;BME280;12600;53.326;-6.298;2023-04-09T01:14:31;101506.78;;;12.18;54.86
24422;BME280;12600;53.326;-6.298;2023-04-09T01:17:34;101516.22;;;12.12;54.39
24422;BME280;12600;53.326;-6.298;2023-04-09T01:20:34;101505.38;;;12.21;54.51
24422;BME280;12600;53.326;-6.298;2023-04-09T01:23:36;101501.97;;;12.10;54.58
24422;BME280;12600;53.326;-6.298;2023-04-09T01:26:44;101499.22;;;12.10;54.83
24422;BME280;12600;53.326;-6.298;2023-04-09T01:29:48;101509.00;;;12.16;55.07
24422;BME280;12600;53.326;-6.298;2023-04-09T01:32:40;101492.38;;;12.26;55.04
24422;BME280;12600;53.326;-6.298;2023-04-09T01:35:30;101494.63;;;12.24;54.83
24422;BME280;12600;53.326;-6.298;2023-04-09T01:38:21;101477.75;;;12.17;54.89
24422;BME280;12600;53.326;-6.298;2023-04-09T01:41:15;101485.28;;;12.25;54.42
24422;BME280;12600;53.326;-6.298;2023-04-09T01:44:07;101498.69;;;12.27;53.32
24422;BME280;12600;53.326;-6.298;2023-04-09T01:46:59;101497.19;;;12.35;53.02
24422;BME280;12600;53.326;-6.298;2023-04-09T01:49:49;101488.38;;;12.38;53.07
24422;BME280;12600;53.326;-6.298;2023-04-09T01:52:39;101487.56;;;12.37;53.32
24422;BME280;12600;53.326;-6.298;2023-04-09T01:55:29;101481.84;;;12.33;53.17
24422;BME280;12600;53.326;-6.298;2023-04-09T01:58:18;101470.91;;;12.33;53.06
24422;BME280;12600;53.326;-6.298;2023-04-09T02:01:12;101463.78;;;12.32;53.77
24422;BME280;12600;53.326;-6.298;2023-04-09T02:04:08;101459.00;;;12.24;54.11
24422;BME280;12600;53.326;-6.298;2023-04-09T02:07:07;101438.31;;;12.32;53.82
24422;BME280;12600;53.326;-6.298;2023-04-09T02:09:59;101431.31;;;12.26;53.70
24422;BME280;12600;53.326;-6.298;2023-04-09T02:12:50;101430.59;;;12.20;53.96
24422;BME280;12600;53.326;-6.298;2023-04-09T02:15:41;101414.44;;;12.19;54.07
24422;BME280;12600;53.326;-6.298;2023-04-09T02:18:31;101420.22;;;12.17;54.96
24422;BME280;12600;53.326;-6.298;2023-04-09T02:21:22;101427.84;;;12.20;54.88
24422;BME280;12600;53.326;-6.298;2023-04-09T02:24:11;101450.91;;;12.19;55.63
24422;BME280;12600;53.326;-6.298;2023-04-09T02:27:00;101435.34;;;12.15;55.40
24422;BME280;12600;53.326;-6.298;2023-04-09T02:29:50;101424.09;;;12.16;56.25
24422;BME280;12600;53.326;-6.298;2023-04-09T02:32:39;101423.97;;;12.08;56.46
24422;BME280;12600;53.326;-6.298;2023-04-09T02:35:28;101430.84;;;12.05;57.43
24422;BME280;12600;53.326;-6.298;2023-04-09T02:38:19;101427.00;;;12.06;57.17
24422;BME280;12600;53.326;-6.298;2023-04-09T02:41:09;101419.53;;;11.93;57.17
24422;BME280;12600;53.326;-6.298;2023-04-09T02:43:58;101416.13;;;12.01;57.17
24422;BME280;12600;53.326;-6.298;2023-04-09T02:46:50;101406.91;;;11.97;57.17
24422;BME280;12600;53.326;-6.298;2023-04-09T02:49:40;101405.47;;;11.99;56.76
24422;BME280;12600;53.326;-6.298;2023-04-09T02:52:29;101411.84;;;11.95;56.98
24422;BME280;12600;53.326;-6.298;2023-04-09T02:55:20;101414.50;;;12.00;57.06
24422;BME280;12600;53.326;-6.298;2023-04-09T02:58:10;101418.34;;;11.99;57.08
24422;BME280;12600;53.326;-6.298;2023-04-09T03:00:59;101407.47;;;11.94;57.35
24422;BME280;12600;53.326;-6.298;2023-04-09T03:03:49;101408.59;;;11.93;57.47
24422;BME280;12600;53.326;-6.298;2023-04-09T03:06:38;101410.44;;;11.97;56.98
24422;BME280;12600;53.326;-6.298;2023-04-09T03:09:28;101391.66;;;11.91;57.39
24422;BME280;12600;53.326;-6.298;2023-04-09T03:12:19;101393.72;;;11.99;57.69
24422;BME280;12600;53.326;-6.298;2023-04-09T03:15:09;101392.66;;;11.95;58.19
24422;BME280;12600;53.326;-6.298;2023-04-09T03:17:58;101374.91;;;11.92;57.94
24422;BME280;12600;53.326;-6.298;2023-04-09T03:20:48;101377.47;;;11.89;58.37
24422;BME280;12600;53.326;-6.298;2023-04-09T03:23:37;101368.63;;;11.92;58.21
24422;BME280;12600;53.326;-6.298;2023-04-09T03:26:28;101359.81;;;11.95;58.18
24422;BME280;12600;53.326;-6.298;2023-04-09T03:29:26;101359.81;;;11.95;58.55
24422;BME280;12600;53.326;-6.298;2023-04-09T03:32:16;101369.13;;;11.94;58.22
24422;BME280;12600;53.326;-6.298;2023-04-09T03:35:07;101363.38;;;11.95;58.75
24422;BME280;12600;53.326;-6.298;2023-04-09T03:37:58;101350.78;;;11.94;58.84
24422;BME280;12600;53.326;-6.298;2023-04-09T03:40:48;101347.84;;;11.91;59.12
24422;BME280;12600;53.326;-6.298;2023-04-09T03:43:37;101349.78;;;11.90;59.12
24422;BME280;12600;53.326;-6.298;2023-04-09T03:46:29;101336.69;;;11.87;59.60
24422;BME280;12600;53.326;-6.298;2023-04-09T03:49:20;101342.38;;;11.91;59.82
24422;BME280;12600;53.326;-6.298;2023-04-09T03:52:10;101328.06;;;11.80;59.95
24422;BME280;12600;53.326;-6.298;2023-04-09T03:55:05;101339.22;;;11.84;60.41
24422;BME280;12600;53.326;-6.298;2023-04-09T03:57:54;101336.38;;;11.89;60.45
24422;BME280;12600;53.326;-6.298;2023-04-09T04:00:48;101318.84;;;11.90;60.40
24422;BME280;12600;53.326;-6.298;2023-04-09T04:04:05;101320.03;;;11.84;61.36
24422;BME280;12600;53.326;-6.298;2023-04-09T04:07:01;101323.19;;;11.91;60.87
24422;BME280;12600;53.326;-6.298;2023-04-09T04:09:57;101318.34;;;11.88;60.94
24422;BME280;12600;53.326;-6.298;2023-04-09T04:12:47;101306.41;;;11.78;61.38
24422;BME280;12600;53.326;-6.298;2023-04-09T04:15:52;101309.31;;;11.87;61.59
24422;BME280;12600;53.326;-6.298;2023-04-09T04:18:43;101298.88;;;11.89;61.83
24422;BME280;12600;53.326;-6.298;2023-04-09T04:21:34;101282.00;;;11.82;62.33
24422;BME280;12600;53.326;-6.298;2023-04-09T04:24:23;101288.34;;;11.77;62.88
24422;BME280;12600;53.326;-6.298;2023-04-09T04:27:13;101301.34;;;11.72;63.35
24422;BME280;12600;53.326;-6.298;2023-04-09T04:30:03;101292.31;;;11.71;63.50
24422;BME280;12600;53.326;-6.298;2023-04-09T04:33:04;101297.19;;;11.74;63.07
24422;BME280;12600;53.326;-6.298;2023-04-09T04:36:05;101283.50;;;11.74;63.33
24422;BME280;12600;53.326;-6.298;2023-04-09T04:39:00;101274.78;;;11.72;63.79
24422;BME280;12600;53.326;-6.298;2023-04-09T04:42:10;101275.91;;;11.71;63.73
24422;BME280;12600;53.326;-6.298;2023-04-09T04:44:59;101255.28;;;11.60;63.73
24422;BME280;12600;53.326;-6.298;2023-04-09T04:48:00;101278.09;;;11.69;64.03
24422;BME280;12600;53.326;-6.298;2023-04-09T04:50:55;101285.09;;;11.75;63.81
24422;BME280;12600;53.326;-6.298;2023-04-09T04:53:48;101242.63;;;11.64;63.63
24422;BME280;12600;53.326;-6.298;2023-04-09T04:56:39;101268.91;;;11.79;63.58
24422;BME280;12600;53.326;-6.298;2023-04-09T04:59:38;101276.84;;;11.81;63.68
24422;BME280;12600;53.326;-6.298;2023-04-09T05:02:30;101271.50;;;11.70;64.85
24422;BME280;12600;53.326;-6.298;2023-04-09T05:05:35;101264.63;;;11.73;64.20
24422;BME280;12600;53.326;-6.298;2023-04-09T05:08:24;101247.97;;;11.69;64.39
24422;BME280;12600;53.326;-6.298;2023-04-09T05:11:15;101247.81;;;11.80;64.14
24422;BME280;12600;53.326;-6.298;2023-04-09T05:14:08;101239.81;;;11.83;64.38
24422;BME280;12600;53.326;-6.298;2023-04-09T05:17:00;101229.19;;;11.82;64.26
24422;BME280;12600;53.326;-6.298;2023-04-09T05:20:00;101220.53;;;11.74;64.81
24422;BME280;12600;53.326;-6.298;2023-04-09T05:23:02;101218.78;;;11.78;64.79
24422;BME280;12600;53.326;-6.298;2023-04-09T05:25:57;101218.28;;;11.76;65.16
24422;BME280;12600;53.326;-6.298;2023-04-09T05:29:01;101213.75;;;11.72;65.13
24422;BME280;12600;53.326;-6.298;2023-04-09T05:31:54;101223.34;;;11.69;65.45
24422;BME280;12600;53.326;-6.298;2023-04-09T05:35:01;101229.94;;;11.68;65.65
24422;BME280;12600;53.326;-6.298;2023-04-09T05:37:54;101227.44;;;11.72;65.69
24422;BME280;12600;53.326;-6.298;2023-04-09T05:40:44;101229.13;;;11.68;65.62
24422;BME280;12600;53.326;-6.298;2023-04-09T05:43:33;101232.09;;;11.71;65.52
24422;BME280;12600;53.326;-6.298;2023-04-09T05:46:26;101217.56;;;11.71;65.80
24422;BME280;12600;53.326;-6.298;2023-04-09T05:49:18;101225.78;;;11.71;65.82
24422;BME280;12600;53.326;-6.298;2023-04-09T05:52:10;101229.34;;;11.71;65.77
24422;BME280;12600;53.326;-6.298;2023-04-09T05:55:01;101232.91;;;11.72;65.66
24422;BME280;12600;53.326;-6.298;2023-04-09T05:58:03;101227.13;;;11.73;65.77
24422;BME280;12600;53.326;-6.298;2023-04-09T06:00:55;101229.56;;;11.75;65.65
24422;BME280;12600;53.326;-6.298;2023-04-09T06:03:44;101226.50;;;11.76;65.60
24422;BME280;12600;53.326;-6.298;2023-04-09T06:06:37;101208.47;;;11.75;65.84
24422;BME280;12600;53.326;-6.298;2023-04-09T06:09:26;101207.78;;;11.84;65.96
24422;BME280;12600;53.326;-6.298;2023-04-09T06:12:16;101228.88;;;11.83;65.67
24422;BME280;12600;53.326;-6.298;2023-04-09T06:15:06;101243.78;;;11.91;65.97
24422;BME280;12600;53.326;-6.298;2023-04-09T06:17:55;101236.06;;;11.93;65.82
24422;BME280;12600;53.326;-6.298;2023-04-09T06:20:46;101238.31;;;11.91;65.66
24422;BME280;12600;53.326;-6.298;2023-04-09T06:23:36;101248.25;;;12.00;65.62
24422;BME280;12600;53.326;-6.298;2023-04-09T06:26:26;101239.13;;;12.05;65.76
24422;BME280;12600;53.326;-6.298;2023-04-09T06:29:15;101225.53;;;12.14;65.32
24422;BME280;12600;53.326;-6.298;2023-04-09T06:32:05;101230.00;;;12.23;65.23
24422;BME280;12600;53.326;-6.298;2023-04-09T06:34:55;101229.00;;;12.19;65.55
24422;BME280;12600;53.326;-6.298;2023-04-09T06:37:44;101245.22;;;12.29;65.32
24422;BME280;12600;53.326;-6.298;2023-04-09T06:40:36;101220.78;;;12.19;65.37
24422;BME280;12600;53.326;-6.298;2023-04-09T06:43:26;101229.00;;;12.19;65.84
24422;BME280;12600;53.326;-6.298;2023-04-09T06:46:15;101219.56;;;12.12;66.24
24422;BME280;12600;53.326;-6.298;2023-04-09T06:49:07;101215.38;;;12.14;66.08
24422;BME280;12600;53.326;-6.298;2023-04-09T06:51:56;101206.75;;;12.21;65.81
24422;BME280;12600;53.326;-6.298;2023-04-09T06:54:46;101211.84;;;12.14;66.42
24422;BME280;12600;53.326;-6.298;2023-04-09T06:57:37;101198.94;;;12.14;66.89
24422;BME280;12600;53.326;-6.298;2023-04-09T07:00:26;101194.50;;;12.04;67.20
24422;BME280;12600;53.326;-6.298;2023-04-09T07:03:16;101187.69;;;12.02;67.09
24422;BME280;12600;53.326;-6.298;2023-04-09T07:06:05;101182.13;;;12.07;67.23
24422;BME280;12600;53.326;-6.298;2023-04-09T07:08:55;101175.03;;;12.06;67.30
24422;BME280;12600;53.326;-6.298;2023-04-09T07:11:44;101164.06;;;12.20;67.15
24422;BME280;12600;53.326;-6.298;2023-04-09T07:14:34;101169.53;;;12.20;67.26
24422;BME280;12600;53.326;-6.298;2023-04-09T07:17:24;101128.13;;;12.21;66.89
24422;BME280;12600;53.326;-6.298;2023-04-09T07:20:13;101149.09;;;12.26;67.44
24422;BME280;12600;53.326;-6.298;2023-04-09T07:23:02;101132.88;;;12.29;67.82
24422;BME280;12600;53.326;-6.298;2023-04-09T07:25:52;101133.53;;;12.35;67.70
24422;BME280;12600;53.326;-6.298;2023-04-09T07:28:41;101130.91;;;12.44;67.65
24422;BME280;12600;53.326;-6.298;2023-04-09T07:31:31;101127.91;;;12.54;67.16
24422;BME280;12600;53.326;-6.298;2023-04-09T07:34:22;101117.44;;;12.56;66.93
24422;BME280;12600;53.326;-6.298;2023-04-09T07:37:12;101106.31;;;12.52;66.92
24422;BME280;12600;53.326;-6.298;2023-04-09T07:40:02;101094.88;;;12.59;66.64
24422;BME280;12600;53.326;-6.298;2023-04-09T07:42:51;101086.22;;;12.66;67.09
24422;BME280;12600;53.326;-6.298;2023-04-09T07:45:42;101077.09;;;12.70;66.82
24422;BME280;12600;53.326;-6.298;2023-04-09T07:48:34;101075.38;;;12.83;66.43
24422;BME280;12600;53.326;-6.298;2023-04-09T07:51:24;101078.19;;;12.92;66.24
24422;BME280;12600;53.326;-6.298;2023-04-09T07:54:14;101087.09;;;13.06;66.28
24422;BME280;12600;53.326;-6.298;2023-04-09T07:57:03;101088.13;;;13.10;65.74
24422;BME280;12600;53.326;-6.298;2023-04-09T07:59:53;101064.00;;;12.98;65.29
24422;BME280;12600;53.326;-6.298;2023-04-09T08:02:42;101070.66;;;13.06;65.25
24422;BME280;12600;53.326;-6.298;2023-04-09T08:05:34;101088.72;;;13.38;64.90
24422;BME280;12600;53.326;-6.298;2023-04-09T08:08:24;101076.34;;;13.40;64.34
24422;BME280;12600;53.326;-6.298;2023-04-09T08:11:14;101100.06;;;13.45;63.60
24422;BME280;12600;53.326;-6.298;2023-04-09T08:14:04;101087.16;;;13.46;62.75
24422;BME280;12600;53.326;-6.298;2023-04-09T08:16:54;101094.75;;;13.40;62.91
24422;BME280;12600;53.326;-6.298;2023-04-09T08:19:43;101077.00;;;13.55;62.09
24422;BME280;12600;53.326;-6.298;2023-04-09T08:22:34;101084.44;;;13.63;62.62
24422;BME280;12600;53.326;-6.298;2023-04-09T08:25:23;101088.88;;;13.81;62.02
24422;BME280;12600;53.326;-6.298;2023-04-09T08:28:13;101100.69;;;13.90;61.96
24422;BME280;12600;53.326;-6.298;2023-04-09T08:31:02;101087.78;;;13.99;62.08
24422;BME280;12600;53.326;-6.298;2023-04-09T08:33:51;101087.63;;;14.05;61.59
24422;BME280;12600;53.326;-6.298;2023-04-09T08:36:40;101087.13;;;14.11;61.50
24422;BME280;12600;53.326;-6.298;2023-04-09T08:39:34;101101.69;;;14.12;61.27
24422;BME280;12600;53.326;-6.298;2023-04-09T08:42:24;101100.38;;;14.18;61.05
24422;BME280;12600;53.326;-6.298;2023-04-09T08:45:13;101095.22;;;14.25;61.26
24422;BME280;12600;53.326;-6.298;2023-04-09T08:48:05;101108.34;;;14.28;60.57
24422;BME280;12600;53.326;-6.298;2023-04-09T08:50:56;101110.56;;;14.35;60.47
24422;BME280;12600;53.326;-6.298;2023-04-09T08:53:47;101085.03;;;14.25;60.16
24422;BME280;12600;53.326;-6.298;2023-04-09T08:56:41;101110.44;;;14.22;60.28
24422;BME280;12600;53.326;-6.298;2023-04-09T08:59:30;101089.72;;;14.25;60.14
24422;BME280;12600;53.326;-6.298;2023-04-09T09:02:23;101098.28;;;14.32;59.83
24422;BME280;12600;53.326;-6.298;2023-04-09T09:05:13;101079.72;;;14.29;60.08
24422;BME280;12600;53.326;-6.298;2023-04-09T09:08:02;101086.50;;;14.40;59.43
24422;BME280;12600;53.326;-6.298;2023-04-09T09:10:52;101082.28;;;14.43;59.15
24422;BME280;12600;53.326;-6.298;2023-04-09T09:13:42;101074.84;;;14.43;59.36
24422;BME280;12600;53.326;-6.298;2023-04-09T09:16:34;101081.81;;;14.41;59.27
24422;BME280;12600;53.326;-6.298;2023-04-09T09:19:29;101068.41;;;14.48;59.12
24422;BME280;12600;53.326;-6.298;2023-04-09T09:22:20;101073.88;;;14.39;59.30
24422;BME280;12600;53.326;-6.298;2023-04-09T09:25:12;101069.69;;;14.50;59.08
24422;BME280;12600;53.326;-6.298;2023-04-09T09:28:07;101074.53;;;14.45;58.60
24422;BME280;12600;53.326;-6.298;2023-04-09T09:31:07;101071.31;;;14.51;58.51
24422;BME280;12600;53.326;-6.298;2023-04-09T09:33:57;101067.44;;;14.61;58.59
24422;BME280;12600;53.326;-6.298;2023-04-09T09:36:56;101076.97;;;14.55;58.48
24422;BME280;12600;53.326;-6.298;2023-04-09T09:39:45;101074.38;;;14.59;58.71
24422;BME280;12600;53.326;-6.298;2023-04-09T09:42:34;101077.44;;;14.66;58.58
24422;BME280;12600;53.326;-6.298;2023-04-09T09:45:24;101067.59;;;14.47;58.68
24422;BME280;12600;53.326;-6.298;2023-04-09T09:48:15;101067.91;;;14.63;58.29
24422;BME280;12600;53.326;-6.298;2023-04-09T09:51:09;101075.81;;;14.65;58.66
24422;BME280;12600;53.326;-6.298;2023-04-09T09:53:59;101062.75;;;14.62;58.57
24422;BME280;12600;53.326;-6.298;2023-04-09T09:56:51;101067.25;;;14.58;58.99
24422;BME280;12600;53.326;-6.298;2023-04-09T09:59:49;101044.66;;;14.52;59.04
24422;BME280;12600;53.326;-6.298;2023-04-09T10:02:45;101049.47;;;14.38;60.05
24422;BME280;12600;53.326;-6.298;2023-04-09T10:05:38;101053.69;;;14.44;59.72
24422;BME280;12600;53.326;-6.298;2023-04-09T10:08:30;101043.31;;;14.32;59.85
24422;BME280;12600;53.326;-6.298;2023-04-09T10:11:21;101050.75;;;14.32;60.33
24422;BME280;12600;53.326;-6.298;2023-04-09T10:14:11;101038.97;;;14.31;60.37
24422;BME280;12600;53.326;-6.298;2023-04-09T10:17:01;101050.59;;;14.37;60.76
24422;BME280;12600;53.326;-6.298;2023-04-09T10:19:58;101023.75;;;14.34;60.86
24422;BME280;12600;53.326;-6.298;2023-04-09T10:22:52;101032.78;;;14.43;60.92
24422;BME280;12600;53.326;-6.298;2023-04-09T10:25:41;101016.00;;;14.44;60.76
24422;BME280;12600;53.326;-6.298;2023-04-09T10:28:31;101022.31;;;14.45;60.84
24422;BME280;12600;53.326;-6.298;2023-04-09T10:31:20;101012.94;;;14.46;61.21
24422;BME280;12600;53.326;-6.298;2023-04-09T10:34:10;101008.91;;;14.52;60.95
24422;BME280;12600;53.326;-6.298;2023-04-09T10:37:02;101002.22;;;14.62;61.36
24422;BME280;12600;53.326;-6.298;2023-04-09T10:39:55;100995.72;;;14.75;60.58
24422;BME280;12600;53.326;-6.298;2023-04-09T10:42:46;100991.97;;;14.79;60.71
24422;BME280;12600;53.326;-6.298;2023-04-09T10:45:40;100984.03;;;14.87;60.66
24422;BME280;12600;53.326;-6.298;2023-04-09T10:48:32;100976.06;;;14.94;60.69
24422;BME280;12600;53.326;-6.298;2023-04-09T10:51:24;100965.66;;;14.99;60.43
24422;BME280;12600;53.326;-6.298;2023-04-09T10:54:43;100972.81;;;15.00;60.45
24422;BME280;12600;53.326;-6.298;2023-04-09T10:57:35;100972.31;;;14.98;60.28
24422;BME280;12600;53.326;-6.298;2023-04-09T11:00:24;100963.13;;;14.94;59.68
24422;BME280;12600;53.326;-6.298;2023-04-09T11:03:24;100938.41;;;14.86;59.14
24422;BME280;12600;53.326;-6.298;2023-04-09T11:06:15;100941.91;;;14.95;59.42
24422;BME280;12600;53.326;-6.298;2023-04-09T11:09:08;100932.00;;;15.02;59.15
24422;BME280;12600;53.326;-6.298;2023-04-09T11:11:57;100924.41;;;14.99;58.98
24422;BME280;12600;53.326;-6.298;2023-04-09T11:14:47;100914.81;;;15.05;58.95
24422;BME280;12600;53.326;-6.298;2023-04-09T11:17:37;100922.91;;;15.10;58.97
24422;BME280;12600;53.326;-6.298;2023-04-09T11:20:26;100915.78;;;15.09;59.12
24422;BME280;12600;53.326;-6.298;2023-04-09T11:23:17;100923.34;;;15.13;58.70
24422;BME280;12600;53.326;-6.298;2023-04-09T11:26:08;100919.13;;;15.15;58.82
24422;BME280;12600;53.326;-6.298;2023-04-09T11:28:58;100909.19;;;15.02;58.26
24422;BME280;12600;53.326;-6.298;2023-04-09T11:31:53;100898.69;;;14.95;58.22
24422;BME280;12600;53.326;-6.298;2023-04-09T11:34:43;100910.38;;;14.92;58.41
24422;BME280;12600;53.326;-6.298;2023-04-09T11:37:35;100896.75;;;14.96;58.47
24422;BME280;12600;53.326;-6.298;2023-04-09T11:40:26;100884.31;;;14.90;58.17
24422;BME280;12600;53.326;-6.298;2023-04-09T11:43:16;100885.13;;;14.90;57.92
24422;BME280;12600;53.326;-6.298;2023-04-09T11:46:08;100895.53;;;14.85;58.19
24422;BME280;12600;53.326;-6.298;2023-04-09T11:48:59;100901.22;;;14.79;57.92
24422;BME280;12600;53.326;-6.298;2023-04-09T11:51:48;100904.47;;;14.73;58.74
24422;BME280;12600;53.326;-6.298;2023-04-09T11:54:38;100867.03;;;14.42;58.23
24422;BME280;12600;53.326;-6.298;2023-04-09T11:57:40;100905.47;;;14.68;58.42
24422;BME280;12600;53.326;-6.298;2023-04-09T12:00:32;100910.22;;;14.50;58.40
24422;BME280;12600;53.326;-6.298;2023-04-09T12:03:28;100899.41;;;14.45;59.05
24422;BME280;12600;53.326;-6.298;2023-04-09T12:06:22;100906.03;;;14.44;58.63
24422;BME280;12600;53.326;-6.298;2023-04-09T12:09:11;100902.94;;;14.54;59.15
24422;BME280;12600;53.326;-6.298;2023-04-09T12:12:01;100891.28;;;14.58;59.20
24422;BME280;12600;53.326;-6.298;2023-04-09T12:14:50;100888.97;;;14.68;59.22
24422;BME280;12600;53.326;-6.298;2023-04-09T12:17:40;100863.44;;;14.59;59.60
24422;BME280;12600;53.326;-6.298;2023-04-09T12:20:32;100873.78;;;14.62;59.60
24422;BME280;12600;53.326;-6.298;2023-04-09T12:23:23;100883.63;;;14.72;59.38
24422;BME280;12600;53.326;-6.298;2023-04-09T12:26:13;100878.09;;;14.72;59.28
24422;BME280;12600;53.326;-6.298;2023-04-09T12:29:02;100898.88;;;14.61;59.78
24422;BME280;12600;53.326;-6.298;2023-04-09T12:31:51;100887.84;;;14.69;59.62
24422;BME280;12600;53.326;-6.298;2023-04-09T12:34:41;100895.41;;;14.72;59.95
24422;BME280;12600;53.326;-6.298;2023-04-09T12:37:30;100871.13;;;14.74;59.81
24422;BME280;12600;53.326;-6.298;2023-04-09T12:40:21;100864.19;;;14.77;59.65
24422;BME280;12600;53.326;-6.298;2023-04-09T12:43:10;100858.97;;;14.84;59.49
24422;BME280;12600;53.326;-6.298;2023-04-09T12:46:00;100854.84;;;14.90;59.30
24422;BME280;12600;53.326;-6.298;2023-04-09T12:48:49;100856.47;;;14.91;59.50
24422;BME280;12600;53.326;-6.298;2023-04-09T12:51:38;100844.94;;;14.98;59.11
24422;BME280;12600;53.326;-6.298;2023-04-09T12:54:28;100840.47;;;14.93;59.44
24422;BME280;12600;53.326;-6.298;2023-04-09T12:57:19;100827.88;;;14.83;59.79
24422;BME280;12600;53.326;-6.298;2023-04-09T13:00:09;100821.38;;;14.88;59.94
24422;BME280;12600;53.326;-6.298;2023-04-09T13:02:59;100836.34;;;14.99;59.53
24422;BME280;12600;53.326;-6.298;2023-04-09T13:05:48;100830.19;;;15.02;59.60
24422;BME280;12600;53.326;-6.298;2023-04-09T13:08:38;100822.06;;;15.06;59.88
24422;BME280;12600;53.326;-6.298;2023-04-09T13:11:27;100838.63;;;14.97;60.58
24422;BME280;12600;53.326;-6.298;2023-04-09T13:14:18;100830.81;;;15.08;60.58
24422;BME280;12600;53.326;-6.298;2023-04-09T13:17:07;100840.25;;;15.19;60.58
24422;BME280;12600;53.326;-6.298;2023-04-09T13:19:56;100822.25;;;15.22;60.75
24422;BME280;12600;53.326;-6.298;2023-04-09T13:22:46;100830.25;;;15.15;60.56
24422;BME280;12600;53.326;-6.298;2023-04-09T13:25:36;100824.81;;;15.27;60.48
24422;BME280;12600;53.326;-6.298;2023-04-09T13:28:25;100803.41;;;15.32;60.67
24422;BME280;12600;53.326;-6.298;2023-04-09T13:31:16;100799.91;;;15.23;61.40
24422;BME280;12600;53.326;-6.298;2023-04-09T13:34:05;100798.28;;;15.22;61.60
24422;BME280;12600;53.326;-6.298;2023-04-09T13:36:54;100796.69;;;15.21;62.13
24422;BME280;12600;53.326;-6.298;2023-04-09T13:39:44;100781.44;;;15.24;62.17
24422;BME280;12600;53.326;-6.298;2023-04-09T13:42:33;100777.16;;;15.14;62.88
24422;BME280;12600;53.326;-6.298;2023-04-09T13:45:24;100790.13;;;15.14;63.17
24422;BME280;12600;53.326;-6.298;2023-04-09T13:48:15;100791.41;;;15.16;62.88
24422;BME280;12600;53.326;-6.298;2023-04-09T13:51:05;100799.50;;;15.13;62.95
24422;BME280;12600;53.326;-6.298;2023-04-09T13:53:55;100809.84;;;15.16;63.09
24422;BME280;12600;53.326;-6.298;2023-04-09T13:56:44;100771.88;;;15.09;63.26
24422;BME280;12600;53.326;-6.298;2023-04-09T13:59:34;100745.75;;;15.15;63.99
24422;BME280;12600;53.326;-6.298;2023-04-09T14:02:24;100711.88;;;15.02;65.17
24422;BME280;12600;53.326;-6.298;2023-04-09T14:05:16;100701.59;;;14.91;65.99
24422;BME280;12600;53.326;-6.298;2023-04-09T14:08:05;100709.31;;;14.97;65.89
24422;BME280;12600;53.326;-6.298;2023-04-09T14:10:55;100716.56;;;15.02;65.81
24422;BME280;12600;53.326;-6.298;2023-04-09T14:13:44;100727.69;;;15.05;65.18
24422;BME280;12600;53.326;-6.298;2023-04-09T14:16:33;100766.75;;;15.20;65.25
24422;BME280;12600;53.326;-6.298;2023-04-09T14:19:23;100776.16;;;15.19;65.03
24422;BME280;12600;53.326;-6.298;2023-04-09T14:22:14;100775.75;;;15.29;64.56
24422;BME280;12600;53.326;-6.298;2023-04-09T14:25:04;100763.22;;;15.31;64.31
24422;BME280;12600;53.326;-6.298;2023-04-09T14:27:53;100749.19;;;15.45;64.53
24422;BME280;12600;53.326;-6.298;2023-04-09T14:30:44;100744.56;;;15.37;63.90
24422;BME280;12600;53.326;-6.298;2023-04-09T14:33:34;100746.22;;;15.50;63.66
24422;BME280;12600;53.326;-6.298;2023-04-09T14:36:23;100722.34;;;15.54;62.44
24422;BME280;12600;53.326;-6.298;2023-04-09T14:39:15;100743.03;;;15.60;61.23
24422;BME280;12600;53.326;-6.298;2023-04-09T14:42:04;100740.28;;;15.60;60.67
24422;BME280;12600;53.326;-6.298;2023-04-09T14:44:53;100717.13;;;15.61;60.63